Time;durP1;ratioP1;P1;durP2;ratioP2;P2;SDS_P1;SDS_P2;PMS_P1;PMS_P2;Temp;Humidity;BMP_temperature;BMP_pressure;BME280_temperature;BME280_humidity;BME280_pressure;Samples;Min_cycle;Max_cycle;Signal;HPM_P1;HPM_P2
2021/05/19 00:01:37;;;;;;;1.27;0.80;;;11.50;99.90;;;;;;5066855;28;20036;-50
2021/05/19 00:04:03;;;;;;;1.00;0.90;;;11.40;99.90;;;;;;5066887;28;20029;-52
2021/05/19 00:06:29;;;;;;;1.73;0.90;;;11.40;99.90;;;;;;5065815;28;20520;-53
2021/05/19 00:08:55;;;;;;;2.08;1.02;;;11.40;99.90;;;;;;5066489;28;20116;-52
2021/05/19 00:11:20;;;;;;;0.82;0.80;;;11.40;99.90;;;;;;5066495;28;20383;-50
2021/05/19 00:13:47;;;;;;;1.42;0.70;;;11.40;99.90;;;;;;5065986;28;20032;-52
2021/05/19 00:16:13;;;;;;;0.80;0.70;;;11.30;99.90;;;;;;5066320;28;20103;-50
2021/05/19 00:18:39;;;;;;;1.27;0.77;;;11.40;99.90;;;;;;5066102;28;20434;-50
2021/05/19 00:21:06;;;;;;;0.50;0.50;;;11.40;99.90;;;;;;5066322;28;20036;-52
2021/05/19 00:23:32;;;;;;;1.23;0.73;;;11.40;99.90;;;;;;5065965;28;20024;-52
2021/05/19 00:25:58;;;;;;;1.95;0.70;;;11.40;99.90;;;;;;5066841;28;20103;-49
2021/05/19 00:28:24;;;;;;;1.27;0.57;;;11.30;99.90;;;;;;5066049;28;20044;-50
2021/05/19 00:30:54;;;;;;;0.90;0.60;;;11.40;99.90;;;;;;5066822;28;20032;-52
2021/05/19 00:33:20;;;;;;;1.00;0.70;;;11.40;99.90;;;;;;5065931;28;20028;-51
2021/05/19 00:35:46;;;;;;;0.82;0.50;;;11.60;99.90;;;;;;5065950;28;20021;-51
2021/05/19 00:38:12;;;;;;;0.85;0.70;;;11.70;99.90;;;;;;5065308;28;20395;-50
2021/05/19 00:40:37;;;;;;;0.90;0.60;;;11.80;99.90;;;;;;5066357;28;20021;-51
2021/05/19 00:43:04;;;;;;;0.52;0.50;;;11.90;99.90;;;;;;5066270;28;20043;-51
2021/05/19 00:45:29;;;;;;;0.70;0.52;;;11.90;99.90;;;;;;5066537;28;20035;-52
2021/05/19 00:47:56;;;;;;;1.13;0.57;;;12.00;99.90;;;;;;5065501;28;20410;-51
2021/05/19 00:50:24;;;;;;;0.70;0.50;;;11.90;99.90;;;;;;5066071;28;20031;-52
2021/05/19 00:52:50;;;;;;;0.80;0.60;;;11.90;99.90;;;;;;5066347;28;20522;-50
2021/05/19 00:55:16;;;;;;;0.60;0.52;;;11.80;99.90;;;;;;5063882;28;20107;-49
2021/05/19 00:57:44;;;;;;;1.00;0.68;;;11.80;99.90;;;;;;5064832;28;20139;-49
2021/05/19 01:00:15;;;;;;;1.25;0.73;;;11.80;99.90;;;;;;5064604;28;20597;-48
2021/05/19 01:02:41;;;;;;;1.10;0.70;;;11.80;99.90;;;;;;5063588;28;20028;-48
2021/05/19 01:05:14;;;;;;;1.05;0.68;;;11.80;99.90;;;;;;5062067;28;20112;-49
2021/05/19 01:09:34;;;;;;;0.70;0.70;;;11.70;99.90;;;;;;5064736;28;20114;-49
2021/05/19 01:10:25;;;;;;;1.60;0.75;;;11.70;99.90;;;;;;5065088;28;20041;-51
2021/05/19 01:12:52;;;;;;;0.82;0.55;;;11.60;99.90;;;;;;5063974;28;20032;-50
2021/05/19 01:15:19;;;;;;;1.17;0.80;;;11.60;99.90;;;;;;5062100;28;20553;-50
2021/05/19 01:17:46;;;;;;;1.23;0.70;;;11.60;99.90;;;;;;5064607;28;20055;-49
2021/05/19 01:20:13;;;;;;;1.45;0.65;;;11.50;99.90;;;;;;5063904;28;20025;-49
2021/05/19 01:22:41;;;;;;;1.75;1.10;;;11.50;99.90;;;;;;5064302;28;20024;-53
2021/05/19 01:25:08;;;;;;;0.73;0.73;;;11.40;99.90;;;;;;5063957;28;20422;-49
2021/05/19 01:27:35;;;;;;;1.10;0.80;;;11.50;99.90;;;;;;5063196;28;20035;-50
2021/05/19 01:30:03;;;;;;;0.70;0.70;;;11.50;99.90;;;;;;5064447;28;20534;-50
2021/05/19 01:32:29;;;;;;;0.60;0.60;;;11.60;99.90;;;;;;5064240;28;20037;-50
2021/05/19 01:34:55;;;;;;;1.85;0.75;;;11.60;99.90;;;;;;5062926;28;20115;-51
2021/05/19 01:37:22;;;;;;;0.77;0.70;;;11.50;99.90;;;;;;5064036;28;20143;-49
2021/05/19 01:39:49;;;;;;;0.85;0.70;;;11.50;99.90;;;;;;5064390;28;20028;-49
2021/05/19 01:42:14;;;;;;;1.55;0.68;;;11.50;99.90;;;;;;5064051;28;20049;-49
2021/05/19 01:44:41;;;;;;;0.60;0.60;;;11.40;99.90;;;;;;5063532;28;20040;-52
2021/05/19 01:47:08;;;;;;;0.95;0.63;;;11.40;99.90;;;;;;5063964;28;20033;-52
2021/05/19 01:49:43;;;;;;;1.33;0.98;;;11.40;99.90;;;;;;5064032;28;20029;-52
2021/05/19 01:52:13;;;;;;;1.17;0.52;;;11.40;99.90;;;;;;5066656;28;20035;-49
2021/05/19 01:54:40;;;;;;;0.50;0.50;;;11.40;99.90;;;;;;5065222;28;20503;-49
2021/05/19 01:57:08;;;;;;;1.95;0.75;;;11.40;99.90;;;;;;5067872;28;20505;-52
2021/05/19 01:59:34;;;;;;;1.42;0.80;;;11.50;99.90;;;;;;5066972;28;20047;-49
2021/05/19 02:02:00;;;;;;;1.83;0.60;;;11.60;99.90;;;;;;5066169;28;20558;-50
2021/05/19 02:04:27;;;;;;;0.75;0.65;;;11.50;99.90;;;;;;5066085;28;20032;-49
2021/05/19 02:06:55;;;;;;;0.93;0.57;;;11.50;99.90;;;;;;5067767;28;20877;-49
2021/05/19 02:09:21;;;;;;;1.13;0.60;;;11.50;99.90;;;;;;5067251;28;20032;-48
2021/05/19 02:11:48;;;;;;;1.05;0.90;;;11.40;99.90;;;;;;5065949;28;20086;-49
2021/05/19 02:14:14;;;;;;;0.52;0.50;;;11.40;99.90;;;;;;5066443;28;20032;-48
2021/05/19 02:16:40;;;;;;;1.15;0.60;;;11.40;99.90;;;;;;5067761;28;20034;-51
2021/05/19 02:19:09;;;;;;;0.68;0.50;;;11.40;99.90;;;;;;5067744;28;20032;-51
2021/05/19 02:21:40;;;;;;;0.60;0.60;;;11.40;99.90;;;;;;5067251;28;20029;-50
2021/05/19 02:24:06;;;;;;;2.45;0.60;;;11.40;99.90;;;;;;5066132;28;20032;-49
2021/05/19 02:26:32;;;;;;;0.50;0.50;;;11.40;99.90;;;;;;5067636;28;20028;-49
2021/05/19 02:28:58;;;;;;;1.63;0.68;;;11.50;99.90;;;;;;5065344;28;20029;-49
2021/05/19 02:31:23;;;;;;;2.00;0.70;;;11.30;99.90;;;;;;5066174;28;20380;-48
2021/05/19 02:33:49;;;;;;;1.08;0.60;;;11.10;99.90;;;;;;5066756;28;20025;-48
2021/05/19 02:36:15;;;;;;;0.68;0.52;;;11.10;99.90;;;;;;5065348;28;20036;-52
2021/05/19 02:38:41;;;;;;;0.88;0.70;;;11.10;99.90;;;;;;5067382;28;20035;-50
2021/05/19 02:41:06;;;;;;;0.40;0.40;;;11.10;99.90;;;;;;5067415;28;20032;-49
2021/05/19 02:43:32;;;;;;;0.65;0.63;;;11.10;99.90;;;;;;5067084;28;20016;-50
2021/05/19 02:45:59;;;;;;;0.50;0.50;;;11.20;99.90;;;;;;5065534;28;20103;-49
2021/05/19 02:48:25;;;;;;;1.27;0.60;;;11.20;99.90;;;;;;5066479;28;20449;-50
2021/05/19 02:50:51;;;;;;;0.70;0.70;;;11.20;99.90;;;;;;5066944;28;20551;-48
2021/05/19 02:53:17;;;;;;;1.55;0.50;;;11.30;99.90;;;;;;5066752;28;20016;-49
2021/05/19 02:55:44;;;;;;;1.10;0.75;;;11.30;99.90;;;;;;5066037;28;20124;-52
2021/05/19 02:58:09;;;;;;;1.25;0.82;;;11.30;99.90;;;;;;5067532;28;20042;-49
2021/05/19 03:00:35;;;;;;;1.73;1.00;;;11.30;99.90;;;;;;5066821;28;20028;-50
2021/05/19 03:03:03;;;;;;;1.90;0.80;;;11.30;99.90;;;;;;5065242;28;20024;-52
2021/05/19 03:05:30;;;;;;;0.55;0.50;;;11.40;99.90;;;;;;5064560;28;20587;-50
2021/05/19 03:07:57;;;;;;;0.45;0.45;;;11.40;99.90;;;;;;5065729;28;20403;-49
2021/05/19 03:10:22;;;;;;;0.60;0.60;;;11.30;99.90;;;;;;5064346;28;20431;-48
2021/05/19 03:12:53;;;;;;;1.02;0.60;;;11.30;99.90;;;;;;5065897;28;20035;-49
2021/05/19 03:15:20;;;;;;;3.25;0.80;;;11.30;99.90;;;;;;5064837;28;20029;-49
2021/05/19 03:17:47;;;;;;;0.50;0.50;;;11.20;99.90;;;;;;5066079;28;20017;-48
2021/05/19 03:20:13;;;;;;;0.45;0.40;;;11.30;99.90;;;;;;5066192;28;20115;-49
2021/05/19 03:22:39;;;;;;;0.50;0.50;;;11.50;99.90;;;;;;5066975;28;20206;-49
2021/05/19 03:25:06;;;;;;;0.52;0.45;;;11.70;99.90;;;;;;5065666;28;20028;-51
2021/05/19 03:27:32;;;;;;;0.40;0.40;;;11.80;99.90;;;;;;5065523;28;20020;-50
2021/05/19 03:29:58;;;;;;;0.75;0.40;;;11.70;99.90;;;;;;5066471;28;20483;-49
2021/05/19 03:32:23;;;;;;;1.17;0.60;;;11.70;99.90;;;;;;5065870;28;20040;-51
2021/05/19 03:34:49;;;;;;;0.60;0.60;;;11.70;99.90;;;;;;5065509;28;20035;-52
2021/05/19 03:37:15;;;;;;;0.75;0.55;;;11.60;99.90;;;;;;5067219;28;20036;-51
2021/05/19 03:39:41;;;;;;;0.50;0.50;;;11.50;99.90;;;;;;5068400;28;20028;-52
2021/05/19 03:42:07;;;;;;;1.13;0.60;;;11.50;99.90;;;;;;5066978;28;20526;-49
2021/05/19 03:44:32;;;;;;;0.90;0.52;;;11.50;99.90;;;;;;5066510;28;20391;-51
2021/05/19 03:46:58;;;;;;;0.82;0.63;;;11.50;99.90;;;;;;5067223;28;20031;-50
2021/05/19 03:49:31;;;;;;;0.77;0.60;;;11.50;99.90;;;;;;5066983;28;20047;-52
2021/05/19 03:51:57;;;;;;;0.68;0.50;;;11.50;99.90;;;;;;5067423;28;20674;-52
2021/05/19 03:54:22;;;;;;;1.63;0.60;;;11.40;99.90;;;;;;5066015;28;20036;-48
2021/05/19 03:56:50;;;;;;;0.65;0.57;;;11.40;99.90;;;;;;5067234;28;20376;-50
2021/05/19 03:59:16;;;;;;;0.50;0.50;;;11.40;99.90;;;;;;5066666;28;20107;-52
2021/05/19 04:01:42;;;;;;;0.40;0.40;;;11.30;99.90;;;;;;5067189;28;20024;-51
2021/05/19 04:04:07;;;;;;;0.85;0.68;;;11.30;99.90;;;;;;5067190;28;20043;-51
2021/05/19 04:06:33;;;;;;;0.50;0.50;;;11.40;99.90;;;;;;5066317;28;20055;-51
2021/05/19 04:08:59;;;;;;;0.50;0.50;;;11.40;99.90;;;;;;5065659;28;20486;-48
2021/05/19 04:11:25;;;;;;;0.60;0.60;;;11.40;99.90;;;;;;5065417;28;20056;-52
2021/05/19 04:13:51;;;;;;;1.02;0.80;;;11.30;99.90;;;;;;5065826;28;20036;-49
2021/05/19 04:16:16;;;;;;;1.65;0.70;;;11.30;99.90;;;;;;5065269;28;20032;-50
2021/05/19 04:18:43;;;;;;;0.80;0.50;;;11.30;99.90;;;;;;5066615;28;20022;-48
2021/05/19 04:21:08;;;;;;;0.60;0.60;;;11.30;99.90;;;;;;5067200;28;20021;-50
2021/05/19 04:23:34;;;;;;;0.70;0.65;;;11.30;99.90;;;;;;5064646;28;20572;-51
2021/05/19 04:26:00;;;;;;;1.75;0.80;;;11.30;99.90;;;;;;5066352;28;20025;-49
2021/05/19 04:28:26;;;;;;;0.88;0.60;;;11.30;99.90;;;;;;5064865;28;20086;-48
2021/05/19 04:30:53;;;;;;;0.90;0.50;;;11.30;99.90;;;;;;5066713;28;20028;-48
2021/05/19 04:33:21;;;;;;;0.70;0.60;;;11.20;99.90;;;;;;5066340;28;20024;-50
2021/05/19 04:35:47;;;;;;;0.63;0.60;;;11.20;99.90;;;;;;5066322;28;20037;-50
2021/05/19 04:38:14;;;;;;;1.23;0.70;;;11.20;99.90;;;;;;5065107;28;20055;-50
2021/05/19 04:40:40;;;;;;;1.30;0.77;;;11.20;99.90;;;;;;5067327;28;20102;-50
2021/05/19 04:43:07;;;;;;;1.02;0.90;;;11.20;99.90;;;;;;5066292;28;20079;-49
2021/05/19 04:45:33;;;;;;;2.45;1.10;;;11.10;99.90;;;;;;5066323;28;20020;-52
2021/05/19 04:47:59;;;;;;;1.40;1.10;;;11.10;99.90;;;;;;5065352;28;20054;-50
2021/05/19 04:50:25;;;;;;;1.30;1.13;;;11.10;99.90;;;;;;5066142;28;20097;-48
2021/05/19 04:52:51;;;;;;;0.60;0.60;;;11.00;99.90;;;;;;5066368;28;20498;-49
2021/05/19 04:55:16;;;;;;;1.10;0.70;;;11.00;99.90;;;;;;5066001;28;20071;-48
2021/05/19 04:57:43;;;;;;;0.77;0.60;;;11.00;99.90;;;;;;5066520;28;20479;-48
2021/05/19 05:00:10;;;;;;;0.80;0.70;;;11.00;99.90;;;;;;5065703;28;20024;-52
2021/05/19 05:02:37;;;;;;;1.00;0.75;;;11.00;99.90;;;;;;5066299;28;20033;-51
2021/05/19 05:05:08;;;;;;;0.63;0.63;;;11.00;99.90;;;;;;5065226;28;20032;-49
2021/05/19 05:07:34;;;;;;;0.40;0.40;;;11.00;99.90;;;;;;5066255;28;20044;-49
2021/05/19 05:10:02;;;;;;;0.47;0.47;;;11.00;99.90;;;;;;5065428;28;20032;-50
2021/05/19 05:12:27;;;;;;;0.55;0.55;;;11.00;99.90;;;;;;5066160;28;20038;-49
2021/05/19 05:14:53;;;;;;;0.50;0.50;;;11.00;99.90;;;;;;5066063;28;20387;-48
2021/05/19 05:17:19;;;;;;;0.90;0.70;;;11.00;99.90;;;;;;5065263;28;20513;-48
2021/05/19 05:19:44;;;;;;;0.47;0.47;;;11.10;99.90;;;;;;5064554;28;20107;-52
2021/05/19 05:22:10;;;;;;;0.65;0.50;;;11.20;99.90;;;;;;5065813;28;20484;-51
2021/05/19 05:24:36;;;;;;;0.55;0.50;;;11.20;99.90;;;;;;5065401;28;20506;-51
2021/05/19 05:27:03;;;;;;;0.88;0.45;;;11.20;99.90;;;;;;5068759;28;20046;-49
2021/05/19 05:29:30;;;;;;;0.50;0.50;;;11.20;99.90;;;;;;5069361;28;20024;-49
2021/05/19 05:31:57;;;;;;;0.68;0.60;;;11.10;99.90;;;;;;5067893;28;20040;-50
2021/05/19 05:34:23;;;;;;;0.68;0.50;;;11.10;99.90;;;;;;5068975;28;20112;-50
2021/05/19 05:36:49;;;;;;;0.55;0.50;;;11.20;99.90;;;;;;5069163;28;20475;-49
2021/05/19 05:39:15;;;;;;;0.60;0.50;;;11.10;99.90;;;;;;5069061;28;20066;-49
2021/05/19 05:41:41;;;;;;;0.55;0.55;;;11.20;99.90;;;;;;5069901;28;20028;-50
2021/05/19 05:44:07;;;;;;;0.60;0.50;;;11.20;99.90;;;;;;5069713;28;20356;-50
2021/05/19 05:46:33;;;;;;;0.82;0.43;;;11.20;99.90;;;;;;5069067;28;20116;-50
2021/05/19 05:48:59;;;;;;;0.70;0.70;;;11.20;99.90;;;;;;5069727;28;20613;-50
2021/05/19 05:51:26;;;;;;;0.95;0.70;;;11.20;99.90;;;;;;5069198;28;20068;-48
2021/05/19 05:53:52;;;;;;;0.50;0.50;;;11.20;99.90;;;;;;5069288;28;20036;-51
2021/05/19 05:56:19;;;;;;;0.75;0.50;;;11.20;99.90;;;;;;5069066;28;20380;-49
2021/05/19 05:58:44;;;;;;;0.55;0.55;;;11.20;99.90;;;;;;5069269;28;20027;-48
2021/05/19 06:01:11;;;;;;;0.50;0.50;;;11.40;99.90;;;;;;5069366;28;20131;-48
2021/05/19 06:03:37;;;;;;;0.73;0.63;;;11.40;99.90;;;;;;5069772;28;20029;-48
2021/05/19 06:06:03;;;;;;;1.23;0.80;;;11.40;99.90;;;;;;5070794;28;20111;-49
2021/05/19 06:08:29;;;;;;;1.73;0.70;;;11.30;99.90;;;;;;5079042;28;20115;-48
2021/05/19 06:10:55;;;;;;;0.68;0.63;;;11.20;99.90;;;;;;5068708;28;20127;-51
2021/05/19 06:13:22;;;;;;;1.02;0.63;;;11.30;99.90;;;;;;5066228;28;20077;-51
2021/05/19 06:15:48;;;;;;;0.60;0.60;;;11.40;99.90;;;;;;5068387;28;20033;-51
2021/05/19 06:18:14;;;;;;;0.50;0.50;;;11.40;99.90;;;;;;5067720;28;20040;-49
2021/05/19 06:20:39;;;;;;;0.77;0.60;;;11.50;99.90;;;;;;5069125;28;20523;-52
2021/05/19 06:23:05;;;;;;;0.82;0.68;;;11.40;99.90;;;;;;5066456;28;20032;-50
2021/05/19 06:25:31;;;;;;;0.68;0.60;;;11.40;99.90;;;;;;5068460;28;20085;-50
2021/05/19 06:27:57;;;;;;;0.50;0.50;;;11.50;99.90;;;;;;5064630;28;20047;-51
2021/05/19 06:30:23;;;;;;;0.43;0.43;;;11.70;99.90;;;;;;5068289;28;20036;-50
2021/05/19 06:32:49;;;;;;;0.85;0.60;;;11.70;99.90;;;;;;5066441;28;20499;-49
2021/05/19 06:35:16;;;;;;;0.50;0.50;;;11.80;99.90;;;;;;5065692;28;20052;-51
2021/05/19 06:37:42;;;;;;;0.55;0.52;;;11.90;99.90;;;;;;5066302;28;20475;-49
2021/05/19 06:40:09;;;;;;;0.50;0.50;;;11.80;99.90;;;;;;5067003;28;20066;-51
2021/05/19 06:42:35;;;;;;;0.52;0.52;;;11.70;99.90;;;;;;5066042;28;20028;-48
2021/05/19 06:45:01;;;;;;;1.33;0.50;;;11.80;99.90;;;;;;5066241;28;20468;-49
2021/05/19 08:09:07;;;;;;;0.90;0.80;;;13.00;99.90;;;;;;5051342;28;20104;-47
2021/05/19 08:11:34;;;;;;;;;;;12.90;99.90;;;;;;5067113;28;20098;-51
2021/05/19 08:14:00;;;;;;;0.85;0.80;;;13.10;99.90;;;;;;5062314;28;19917;-48
2021/05/19 08:16:26;;;;;;;0.50;0.50;;;13.10;99.90;;;;;;5067958;28;20410;-48
2021/05/19 08:18:51;;;;;;;0.80;0.55;;;13.20;99.90;;;;;;5068392;28;20025;-49
2021/05/19 08:21:17;;;;;;;1.60;0.82;;;13.30;99.90;;;;;;5068111;28;20063;-50
2021/05/19 08:23:43;;;;;;;0.93;0.60;;;13.10;99.90;;;;;;5068118;28;20035;-50
2021/05/19 08:26:09;;;;;;;1.23;0.70;;;13.10;99.90;;;;;;5067907;28;20051;-48
2021/05/19 08:28:37;;;;;;;1.10;0.70;;;13.10;99.90;;;;;;5068108;28;20055;-49
2021/05/19 08:31:04;;;;;;;0.60;0.60;;;13.10;99.90;;;;;;5067800;28;20056;-50
2021/05/19 08:33:31;;;;;;;0.47;0.40;;;13.10;99.90;;;;;;5068527;28;20121;-48
2021/05/19 08:35:56;;;;;;;0.50;0.50;;;13.10;99.90;;;;;;5067995;28;20097;-51
2021/05/19 08:38:23;;;;;;;0.65;0.52;;;13.20;99.90;;;;;;5068051;28;20491;-52
2021/05/19 08:40:49;;;;;;;1.17;0.60;;;13.20;99.90;;;;;;5068065;28;20028;-47
2021/05/19 08:43:15;;;;;;;0.55;0.50;;;13.30;99.90;;;;;;5067673;28;20031;-51
2021/05/19 08:45:41;;;;;;;1.15;0.55;;;13.40;99.90;;;;;;5067466;28;20394;-49
2021/05/19 08:48:08;;;;;;;0.40;0.40;;;13.30;99.90;;;;;;5067593;28;20078;-49
2021/05/19 08:50:36;;;;;;;0.70;0.50;;;13.40;99.90;;;;;;5067081;28;20107;-48
2021/05/19 08:53:07;;;;;;;4.05;0.68;;;13.50;99.90;;;;;;5065873;28;20024;-49
2021/05/19 08:55:33;;;;;;;1.30;0.55;;;13.60;99.90;;;;;;5067716;28;20095;-48
2021/05/19 08:57:59;;;;;;;1.27;0.55;;;13.70;99.90;;;;;;5067759;28;20036;-47
2021/05/19 09:00:25;;;;;;;0.65;0.60;;;13.80;99.90;;;;;;5067810;28;20035;-46
2021/05/19 09:03:11;;;;;;;0.65;0.47;;;13.90;99.90;;;;;;5066355;28;20020;-50
2021/05/19 09:05:44;;;;;;;1.90;0.52;;;14.00;99.90;;;;;;5067485;28;20035;-46
2021/05/19 09:08:16;;;;;;;1.02;0.60;;;13.80;99.90;;;;;;5067490;28;20021;-51
2021/05/19 09:11:06;;;;;;;0.88;0.60;;;13.80;99.90;;;;;;5067581;28;20037;-50
2021/05/19 09:13:36;;;;;;;1.27;0.60;;;13.80;99.90;;;;;;5067712;28;20028;-50
2021/05/19 09:16:04;;;;;;;1.35;0.60;;;13.90;99.90;;;;;;5066430;28;20021;-51
2021/05/19 09:18:51;;;;;;;2.08;0.77;;;13.90;99.90;;;;;;5067400;28;20028;-50
2021/05/19 09:21:41;;;;;;;2.00;0.63;;;14.10;99.90;;;;;;5067397;28;20120;-47
2021/05/19 09:24:30;;;;;;;1.17;0.50;;;14.10;99.90;;;;;;5067595;28;20036;-51
2021/05/19 09:27:00;;;;;;;1.00;0.60;;;14.20;99.90;;;;;;5067612;28;20514;-50
2021/05/19 09:29:37;;;;;;;0.50;0.50;;;14.30;99.90;;;;;;5067589;28;20031;-47
2021/05/19 09:32:06;;;;;;;1.10;0.77;;;14.20;99.90;;;;;;5067493;28;20052;-51
2021/05/19 09:34:38;;;;;;;1.30;0.50;;;14.30;99.90;;;;;;5069927;28;20516;-48
2021/05/19 09:37:24;;;;;;;2.55;0.60;;;14.40;99.90;;;;;;5075868;28;20031;-47
2021/05/19 09:39:57;;;;;;;0.77;0.50;;;14.40;99.90;;;;;;5087401;28;20024;-51
2021/05/19 09:42:25;;;;;;;1.20;0.60;;;14.40;99.90;;;;;;5068191;28;20115;-48
2021/05/19 09:44:51;;;;;;;0.90;0.68;;;14.20;99.90;;;;;;5055687;28;20097;-48
2021/05/19 09:47:43;;;;;;;1.13;0.63;;;14.30;99.90;;;;;;5067078;28;20020;-48
2021/05/19 09:50:12;;;;;;;0.60;0.47;;;14.20;99.90;;;;;;5046981;28;20082;-47
2021/05/19 09:52:37;;;;;;;0.68;0.57;;;14.40;99.90;;;;;;5051673;28;20035;-48
2021/05/19 09:55:11;;;;;;;1.08;0.40;;;14.60;99.90;;;;;;5063811;28;20036;-51
2021/05/19 09:57:44;;;;;;;0.77;0.60;;;14.60;99.90;;;;;;5050351;28;20067;-47
2021/05/19 10:00:14;;;;;;;1.45;0.50;;;14.70;99.90;;;;;;5065778;28;20243;-46
2021/05/19 10:02:41;;;;;;;1.50;0.82;;;14.50;99.90;;;;;;5066330;28;20020;-50
2021/05/19 10:05:33;;;;;;;4.07;0.80;;;13.50;99.90;;;;;;5065234;28;20032;-50
2021/05/19 10:07:55;;;;;;;1.75;0.90;;;13.10;99.90;;;;;;5065442;28;20564;-48
2021/05/19 10:10:25;;;;;;;1.13;0.65;;;12.70;99.90;;;;;;5062821;28;20410;-51
2021/05/19 10:12:50;;;;;;;1.75;0.80;;;12.30;99.90;;;;;;5066473;28;20392;-50
2021/05/19 10:15:22;;;;;;;1.27;1.17;;;11.90;99.90;;;;;;5065740;28;20036;-51
2021/05/19 10:17:54;;;;;;;3.67;1.40;;;11.50;99.90;;;;;;5067140;28;20013;-48
2021/05/19 10:20:24;;;;;;;4.93;1.23;;;11.30;99.90;;;;;;5099971;28;20021;-46
2021/05/19 10:22:50;;;;;;;2.72;1.02;;;11.20;99.90;;;;;;5067501;28;20025;-46
2021/05/19 10:25:49;;;;;;;2.55;0.80;;;11.30;99.90;;;;;;5066398;28;20054;-49
2021/05/19 10:28:16;;;;;;;2.13;1.23;;;11.50;99.90;;;;;;5066281;28;20595;-47
2021/05/19 10:30:47;;;;;;;1.08;0.75;;;11.60;99.90;;;;;;5067251;28;20067;-47
2021/05/19 10:33:33;;;;;;;2.25;1.20;;;11.50;99.90;;;;;;5067118;28;20052;-48
2021/05/19 10:36:00;;;;;;;1.73;0.95;;;11.50;99.90;;;;;;5067199;28;20028;-50
2021/05/19 10:38:31;;;;;;;2.08;1.20;;;11.70;99.90;;;;;;5067132;28;20533;-49
2021/05/19 10:40:59;;;;;;;2.40;1.05;;;11.70;99.90;;;;;;5067040;28;20024;-47
2021/05/19 10:43:51;;;;;;;1.85;1.00;;;11.70;99.90;;;;;;5066948;28;20021;-48
2021/05/19 10:47:09;;;;;;;0.70;0.70;;;12.00;99.90;;;;;;5065708;28;20033;-49
2021/05/19 10:49:57;;;;;;;0.80;0.60;;;12.00;99.90;;;;;;5066963;28;20263;-47
2021/05/19 10:57:09;;;;;;;1.08;0.73;;;12.20;99.90;;;;;;5066822;28;20024;-49
2021/05/19 10:58:01;;;;;;;0.60;0.60;;;12.50;99.90;;;;;;5066948;28;20035;-51
2021/05/19 11:00:31;;;;;;;0.38;0.38;;;12.70;99.90;;;;;;5066691;28;20020;-51
2021/05/19 11:03:08;;;;;;;0.30;0.30;;;13.10;99.90;;;;;;5066446;28;20028;-50
2021/05/19 11:05:59;;;;;;;0.60;0.30;;;13.30;99.90;;;;;;5066642;28;20103;-48
2021/05/19 11:08:28;;;;;;;0.30;0.30;;;13.40;99.90;;;;;;5066479;28;20055;-47
2021/05/19 11:11:13;;;;;;;0.40;0.40;;;13.50;99.90;;;;;;5066531;28;20119;-47
2021/05/19 11:17:21;;;;;;;1.92;1.20;;;14.00;99.90;;;;;;5060780;28;20388;-48
2021/05/19 11:19:46;;;;;;;2.40;1.58;;;14.10;99.90;;;;;;5066221;28;20032;-47
2021/05/19 11:22:14;;;;;;;2.42;1.70;;;14.10;99.90;;;;;;5065932;28;20021;-47
2021/05/19 11:24:58;;;;;;;1.98;1.60;;;14.30;99.90;;;;;;5065772;28;20025;-51
2021/05/19 11:27:26;;;;;;;2.40;1.50;;;14.50;99.90;;;;;;5064938;28;20473;-48
2021/05/19 11:29:54;;;;;;;2.03;1.70;;;14.60;99.90;;;;;;5066484;28;20029;-50
2021/05/19 11:32:23;;;;;;;1.33;1.10;;;14.70;99.90;;;;;;5064648;28;20067;-50
2021/05/19 11:34:51;;;;;;;1.00;0.90;;;14.80;99.90;;;;;;5065793;28;20089;-50
2021/05/19 11:37:19;;;;;;;0.93;0.85;;;14.70;99.90;;;;;;5065733;28;20392;-48
2021/05/19 11:39:56;;;;;;;1.23;1.00;;;14.90;99.90;;;;;;5066286;28;20028;-47
2021/05/19 11:42:30;;;;;;;0.82;0.80;;;15.00;99.90;;;;;;5065719;28;20028;-47
2021/05/19 11:44:59;;;;;;;0.95;0.85;;;15.40;99.90;;;;;;5065655;28;20071;-48
2021/05/19 11:47:36;;;;;;;0.93;0.85;;;15.60;99.90;;;;;;5065721;28;20024;-47
2021/05/19 11:50:06;;;;;;;3.00;0.80;;;15.40;99.90;;;;;;5097518;28;20719;-50
2021/05/19 11:52:42;;;;;;;1.30;0.80;;;15.60;99.90;;;;;;5065786;28;20040;-50
2021/05/19 11:55:52;;;;;;;0.80;0.70;;;15.70;99.90;;;;;;5066300;28;20070;-48
2021/05/19 11:58:21;;;;;;;1.38;0.60;;;16.00;99.90;;;;;;5060480;28;20037;-47
2021/05/19 12:00:57;;;;;;;0.40;0.40;;;16.50;99.90;;;;;;5065498;28;20027;-47
2021/05/19 12:03:24;;;;;;;0.40;0.40;;;16.70;99.90;;;;;;5065017;28;20438;-47
2021/05/19 12:05:59;;;;;;;0.50;0.50;;;16.70;99.90;;;;;;5063876;28;20016;-47
2021/05/19 12:08:47;;;;;;;0.70;0.50;;;17.00;99.90;;;;;;5064410;28;20029;-47
2021/05/19 12:11:19;;;;;;;0.82;0.60;;;17.30;99.90;;;;;;5064771;28;20033;-47
2021/05/19 12:13:53;;;;;;;0.93;0.40;;;17.50;99.90;;;;;;5064350;28;20024;-47
2021/05/19 12:16:39;;;;;;;0.20;0.20;;;17.40;99.90;;;;;;5064274;28;20112;-48
2021/05/19 12:19:20;;;;;;;0.90;0.60;;;17.20;99.90;;;;;;5064882;28;20021;-47
2021/05/19 12:21:54;;;;;;;0.88;0.80;;;17.50;99.90;;;;;;5065163;28;20055;-48
2021/05/19 12:24:27;;;;;;;2.70;0.80;;;17.60;99.90;;;;;;5064224;28;20561;-46
2021/05/19 12:26:56;;;;;;;1.03;0.90;;;17.70;99.90;;;;;;5065602;28;20054;-48
2021/05/19 12:29:34;;;;;;;0.85;0.65;;;17.50;99.90;;;;;;5065665;28;20529;-46
2021/05/19 12:32:21;;;;;;;0.45;0.45;;;17.50;99.90;;;;;;5064793;28;20406;-47
2021/05/19 12:35:08;;;;;;;0.60;0.50;;;17.80;99.90;;;;;;5064485;28;20384;-47
2021/05/19 12:37:58;;;;;;;1.33;0.80;;;17.60;99.90;;;;;;5064935;28;20036;-47
2021/05/19 12:40:26;;;;;;;1.30;0.80;;;17.60;99.90;;;;;;5065742;28;20020;-45
2021/05/19 12:43:00;;;;;;;0.50;0.50;;;17.70;99.90;;;;;;5065071;28;20028;-47
2021/05/19 12:45:29;;;;;;;;;;;17.90;99.90;;;;;;5064512;28;20085;-50
2021/05/19 12:48:09;;;;;;;0.80;0.80;;;18.20;99.90;;;;;;5064445;28;19908;-46
2021/05/19 12:50:48;;;;;;;0.63;0.63;;;18.40;99.90;;;;;;5064838;28;20035;-49
2021/05/19 12:53:43;;;;;;;0.68;0.65;;;18.70;99.90;;;;;;5064598;28;21114;-48
2021/05/19 12:56:18;;;;;;;3.78;0.80;;;18.60;99.90;;;;;;5064412;28;20056;-48
2021/05/19 12:58:51;;;;;;;0.82;0.70;;;18.50;99.90;;;;;;5064573;28;20415;-51
2021/05/19 13:01:18;;;;;;;0.68;0.68;;;18.40;99.90;;;;;;5064514;28;20028;-49
2021/05/19 13:03:45;;;;;;;0.45;0.45;;;17.90;99.90;;;;;;5064658;28;20028;-48
2021/05/19 13:06:12;;;;;;;0.47;0.47;;;18.00;99.90;;;;;;5064945;28;20084;-47
2021/05/19 13:08:38;;;;;;;0.80;0.55;;;18.20;99.90;;;;;;5064643;28;20040;-48
2021/05/19 13:11:08;;;;;;;0.98;0.50;;;18.00;99.90;;;;;;5064241;28;20367;-47
2021/05/19 13:13:40;;;;;;;0.55;0.50;;;18.00;99.90;;;;;;5064696;28;20036;-51
2021/05/19 13:16:10;;;;;;;1.08;0.60;;;17.60;99.90;;;;;;5063279;28;20037;-46
2021/05/19 13:18:44;;;;;;;0.30;0.30;;;17.60;99.90;;;;;;5064675;28;20032;-48
2021/05/19 13:21:22;;;;;;;0.45;0.45;;;17.50;99.90;;;;;;5064530;28;20424;-47
2021/05/19 13:23:57;;;;;;;0.40;0.40;;;17.00;99.90;;;;;;5063661;28;20028;-46
2021/05/19 13:26:29;;;;;;;0.32;0.30;;;16.90;99.90;;;;;;5064530;28;20024;-48
2021/05/19 13:28:56;;;;;;;0.70;0.30;;;17.00;99.90;;;;;;5064600;28;20342;-46
2021/05/19 13:31:24;;;;;;;0.30;0.30;;;17.50;99.90;;;;;;5065274;28;20252;-46
2021/05/19 13:36:35;;;;;;;0.45;0.45;;;18.20;99.90;;;;;;5064630;28;20066;-46
2021/05/19 13:39:24;;;;;;;0.50;0.50;;;18.00;99.90;;;;;;5064465;28;20031;-46
2021/05/19 13:41:53;;;;;;;0.60;0.40;;;18.30;99.90;;;;;;5064592;28;20036;-47
2021/05/19 13:44:20;;;;;;;1.00;0.40;;;18.70;99.90;;;;;;5064021;28;20032;-47
2021/05/19 13:46:50;;;;;;;2.50;0.60;;;18.80;99.90;;;;;;5064788;28;20024;-46
2021/05/19 13:49:23;;;;;;;0.45;0.38;;;18.80;99.90;;;;;;5067923;28;20029;-46
2021/05/19 13:51:52;;;;;;;0.65;0.32;;;19.20;99.90;;;;;;5068262;28;20027;-47
2021/05/19 13:54:18;;;;;;;0.93;0.40;;;19.40;99.90;;;;;;5068120;28;20024;-46
2021/05/19 13:56:44;;;;;;;0.40;0.40;;;19.70;99.90;;;;;;5067688;28;20027;-47
2021/05/19 13:59:10;;;;;;;1.30;0.70;;;19.90;99.90;;;;;;5067624;28;20085;-47
2021/05/19 14:01:37;;;;;;;0.40;0.40;;;20.20;99.90;;;;;;5068242;28;20056;-47
2021/05/19 14:04:04;;;;;;;0.40;0.40;;;20.40;99.90;;;;;;5067570;28;20082;-47
2021/05/19 14:06:30;;;;;;;0.50;0.47;;;20.50;99.90;;;;;;5067010;28;20131;-49
2021/05/19 14:08:55;;;;;;;0.95;0.50;;;20.50;99.90;;;;;;5067723;28;20140;-48
2021/05/19 14:11:24;;;;;;;0.57;0.50;;;20.70;99.90;;;;;;5067077;28;20028;-48
2021/05/19 14:14:05;;;;;;;1.38;0.52;;;20.60;99.90;;;;;;5067637;28;20331;-48
2021/05/19 14:27:01;;;;;;;0.70;0.60;;;19.90;99.90;;;;;;5066576;28;20204;-49
2021/05/19 14:29:26;;;;;;;0.68;0.50;;;19.60;99.90;;;;;;5066048;28;20033;-48
2021/05/19 14:31:55;;;;;;;2.05;0.40;;;19.00;99.90;;;;;;5066883;28;20031;-51
2021/05/19 14:34:24;;;;;;;1.42;0.50;;;18.60;99.90;;;;;;5064831;28;20024;-51
2021/05/19 15:01:13;;;;;;;0.65;0.50;;;13.70;99.90;;;;;;5067235;28;20571;-48
2021/05/19 15:03:38;;;;;;;2.67;0.40;;;14.20;99.90;;;;;;5068607;28;20033;-48
2021/05/19 15:06:04;;;;;;;0.20;0.20;;;15.00;99.90;;;;;;5064732;28;20430;-47